createdAt,value
2019-02-04T00:00:50.451Z,2.50
2019-02-04T00:03:18.929Z,2.00
2019-02-04T00:05:46.820Z,1.57
2019-02-04T00:08:14.679Z,2.23
2019-02-04T00:10:42.959Z,2.00
2019-02-04T00:13:11.515Z,2.10
2019-02-04T00:15:39.680Z,2.07
2019-02-04T00:18:07.836Z,2.07
2019-02-04T00:20:35.797Z,1.97
2019-02-04T00:23:03.671Z,2.00
2019-02-04T00:25:31.625Z,1.90
2019-02-04T00:27:59.680Z,2.10
2019-02-04T00:30:27.943Z,1.90
2019-02-04T00:32:55.936Z,1.70
2019-02-04T00:35:26.160Z,2.23
2019-02-04T00:37:54.112Z,2.20
2019-02-04T00:40:22.678Z,1.70
2019-02-04T00:42:53.974Z,2.03
2019-02-04T00:45:22.285Z,2.43
2019-02-04T00:47:50.293Z,2.00
2019-02-04T00:50:18.681Z,2.30
2019-02-04T00:52:46.568Z,2.20
2019-02-04T00:55:15.108Z,2.10
2019-02-04T00:57:43.684Z,2.10
2019-02-04T01:00:19.950Z,1.70
2019-02-04T01:02:48.031Z,1.97
2019-02-04T01:05:19.443Z,1.97
2019-02-04T01:07:47.751Z,2.03
2019-02-04T01:10:17.659Z,2.07
2019-02-04T01:12:45.914Z,2.10
2019-02-04T01:15:16.921Z,1.90
2019-02-04T01:17:44.775Z,2.20
2019-02-04T01:20:14.618Z,2.17
2019-02-04T01:22:42.812Z,2.23
2019-02-04T01:25:12.708Z,2.53
2019-02-04T01:27:40.894Z,1.87
2019-02-04T01:30:09.431Z,2.10
2019-02-04T01:32:37.474Z,1.87
2019-02-04T01:35:05.546Z,1.70
2019-02-04T01:37:33.645Z,1.90
2019-02-04T01:40:02.326Z,1.60
2019-02-04T01:42:30.203Z,1.93
2019-02-04T01:44:58.224Z,1.83
2019-02-04T01:47:26.192Z,1.90
2019-02-04T01:49:54.282Z,1.93
2019-02-04T01:52:22.462Z,2.17
2019-02-04T01:54:50.653Z,2.20
2019-02-04T01:57:18.635Z,1.93
2019-02-04T01:59:46.643Z,1.93
2019-02-04T02:02:14.504Z,2.17
2019-02-04T02:04:43.930Z,2.20
2019-02-04T02:07:12.115Z,1.70
2019-02-04T02:09:40.073Z,1.57
2019-02-04T02:12:08.533Z,1.80
2019-02-04T02:14:36.611Z,1.60
2019-02-04T02:17:06.857Z,2.13
2019-02-04T02:19:34.821Z,1.90
2019-02-04T02:22:02.985Z,1.67
2019-02-04T02:24:31.066Z,2.37
2019-02-04T02:27:00.212Z,2.00
2019-02-04T02:29:28.203Z,1.80
2019-02-04T02:31:59.580Z,1.70
2019-02-04T02:34:27.546Z,1.70
2019-02-04T02:36:55.872Z,2.10
2019-02-04T02:39:23.999Z,1.70
2019-02-04T02:41:52.175Z,2.30
2019-02-04T02:44:20.138Z,2.00
2019-02-04T02:46:48.210Z,2.10
2019-02-04T02:49:16.284Z,2.03
2019-02-04T02:51:44.360Z,1.73
2019-02-04T02:54:12.460Z,1.87
2019-02-04T02:56:40.523Z,2.00
2019-02-04T02:59:08.474Z,1.90
2019-02-04T03:01:36.611Z,1.90
2019-02-04T03:04:05.732Z,1.63
2019-02-04T03:06:33.635Z,1.60
2019-02-04T03:09:01.845Z,2.03
2019-02-04T03:11:29.817Z,2.00
2019-02-04T03:13:58.217Z,1.50
2019-02-04T03:16:26.301Z,1.90
2019-02-04T03:18:54.804Z,2.00
2019-02-04T03:21:22.760Z,1.60
2019-02-04T03:23:50.839Z,1.80
2019-02-04T03:26:18.839Z,1.77
2019-02-04T03:28:47.260Z,2.00
2019-02-04T03:31:15.249Z,1.50
2019-02-04T03:33:45.729Z,1.93
2019-02-04T03:36:13.606Z,1.73
2019-02-04T03:38:41.689Z,1.63
2019-02-04T03:41:09.772Z,1.70
2019-02-04T03:43:37.890Z,1.87
2019-02-04T03:46:05.955Z,1.67
2019-02-04T03:48:33.985Z,1.67
2019-02-04T03:51:01.872Z,1.60
2019-02-04T03:53:30.089Z,1.83
2019-02-04T03:55:58.166Z,1.73
2019-02-04T03:58:26.245Z,1.60
2019-02-04T04:00:54.319Z,1.47
2019-02-04T04:03:22.417Z,1.50
2019-02-04T04:05:50.573Z,2.10
2019-02-04T04:08:18.841Z,1.67
2019-02-04T04:10:46.912Z,1.93
2019-02-04T04:13:14.996Z,2.00
2019-02-04T04:15:43.701Z,1.57
2019-02-04T04:18:16.126Z,1.33
2019-02-04T04:20:41.656Z,1.37
2019-02-04T04:23:09.809Z,1.70
2019-02-04T04:25:37.763Z,1.63
2019-02-04T04:28:05.691Z,1.80
2019-02-04T04:30:33.589Z,2.00
2019-02-04T04:33:01.597Z,2.57
2019-02-04T04:35:29.753Z,2.30
2019-02-04T04:37:57.907Z,2.13
2019-02-04T04:40:25.795Z,2.27
2019-02-04T04:42:53.667Z,2.60
2019-02-04T04:45:22.285Z,2.20
2019-02-04T04:47:51.261Z,2.93
2019-02-04T04:50:19.455Z,2.00
2019-02-04T04:52:47.456Z,2.37
2019-02-04T04:55:16.847Z,2.07
2019-02-04T04:57:44.836Z,2.47
2019-02-04T05:00:14.384Z,2.17
2019-02-04T05:02:42.848Z,2.00
2019-02-04T05:05:11.155Z,2.20
2019-02-04T05:07:39.916Z,2.37
2019-02-04T05:10:08.764Z,2.00
2019-02-04T05:12:36.772Z,1.80
2019-02-04T05:15:05.185Z,1.87
2019-02-04T05:17:33.444Z,1.93
2019-02-04T05:20:01.442Z,1.90
2019-02-04T05:22:29.580Z,2.00
2019-02-04T05:24:57.555Z,2.10
2019-02-04T05:27:25.508Z,1.90
2019-02-04T05:29:53.452Z,2.47
2019-02-04T05:32:21.580Z,1.93
2019-02-04T05:34:49.545Z,1.93
2019-02-04T05:37:17.604Z,2.30
2019-02-04T05:39:45.676Z,2.20
2019-02-04T05:42:13.834Z,1.70
2019-02-04T05:44:41.793Z,2.33
2019-02-04T05:47:09.660Z,2.30
2019-02-04T05:49:38.095Z,1.90
2019-02-04T05:52:06.138Z,1.73
2019-02-04T05:54:34.140Z,2.10
2019-02-04T05:57:02.244Z,1.87
2019-02-04T05:59:30.227Z,1.90
2019-02-04T06:01:58.308Z,1.93
2019-02-04T06:04:26.164Z,1.70
2019-02-04T06:06:54.244Z,2.13
2019-02-04T06:09:22.223Z,2.00
2019-02-04T06:11:50.414Z,2.00
2019-02-04T06:14:18.383Z,1.63
2019-02-04T06:16:46.476Z,2.00
2019-02-04T06:19:14.589Z,2.10
2019-02-04T06:21:43.386Z,1.70
2019-02-04T06:24:11.572Z,1.87
2019-02-04T06:26:39.762Z,2.00
2019-02-04T06:29:07.723Z,1.77
2019-02-04T06:31:35.608Z,2.30
2019-02-04T06:34:03.559Z,1.73
2019-02-04T06:36:31.703Z,2.10
2019-02-04T06:38:59.678Z,2.10
2019-02-04T06:41:27.757Z,2.33
2019-02-04T06:43:55.816Z,2.07
2019-02-04T06:46:23.776Z,2.23
2019-02-04T06:48:51.941Z,2.27
2019-02-04T06:51:20.088Z,2.27
2019-02-04T06:53:48.400Z,2.13
2019-02-04T06:56:16.471Z,2.50
2019-02-04T06:58:44.546Z,2.97
2019-02-04T07:01:12.622Z,3.70
2019-02-04T07:03:40.725Z,2.80
2019-02-04T07:06:08.803Z,2.60
2019-02-04T07:08:37.302Z,2.73
2019-02-04T07:11:05.886Z,2.80
2019-02-04T07:13:33.894Z,2.50
2019-02-04T07:16:01.960Z,3.57
2019-02-04T07:18:30.060Z,3.00
2019-02-04T07:20:58.113Z,2.80
2019-02-04T07:23:25.999Z,2.70
2019-02-04T07:25:54.037Z,2.67
2019-02-04T07:28:22.057Z,2.17
2019-02-04T07:30:49.903Z,2.77
2019-02-04T07:33:17.813Z,2.53
2019-02-04T07:35:45.676Z,2.70
2019-02-04T07:38:13.639Z,2.93
2019-02-04T07:40:41.506Z,2.87
2019-02-04T07:43:09.451Z,2.47
2019-02-04T07:45:39.603Z,3.20
2019-02-04T07:48:07.465Z,3.43
2019-02-04T07:50:35.678Z,3.70
2019-02-04T07:53:03.741Z,4.03
2019-02-04T07:55:31.720Z,3.53
2019-02-04T07:57:59.709Z,3.57
2019-02-04T08:00:28.784Z,3.53
2019-02-04T08:02:56.956Z,3.67
2019-02-04T08:05:25.327Z,3.17
2019-02-04T08:07:53.295Z,3.10
2019-02-04T08:10:21.351Z,3.47
2019-02-04T08:13:00.542Z,3.77
2019-02-04T08:15:20.567Z,3.70
2019-02-04T08:17:48.639Z,3.30
2019-02-04T08:20:16.695Z,3.63
2019-02-04T08:22:44.560Z,3.10
2019-02-04T08:25:13.261Z,3.30
2019-02-04T08:27:41.120Z,3.00
2019-02-04T08:30:12.173Z,2.77
2019-02-04T08:32:40.131Z,2.77
2019-02-04T08:35:08.301Z,2.23
2019-02-04T08:37:36.278Z,2.77
2019-02-04T08:40:04.466Z,2.57
2019-02-04T08:42:35.351Z,2.40
2019-02-04T08:45:03.000Z,2.90
2019-02-04T08:47:31.387Z,3.30
2019-02-04T08:50:01.805Z,3.13
2019-02-04T08:52:29.328Z,3.30
2019-02-04T08:54:57.440Z,2.83
2019-02-04T08:57:25.386Z,3.43
2019-02-04T08:59:53.453Z,3.40
2019-02-04T09:02:21.339Z,3.20
2019-02-04T09:04:49.725Z,2.87
2019-02-04T09:07:17.689Z,3.90
2019-02-04T09:09:45.686Z,3.23
2019-02-04T09:12:13.980Z,3.20
2019-02-04T09:14:41.829Z,3.93
2019-02-04T09:17:09.796Z,4.27
2019-02-04T09:19:37.808Z,3.97
2019-02-04T09:22:06.363Z,4.30
2019-02-04T09:24:34.224Z,4.47
2019-02-04T09:27:02.158Z,4.43
2019-02-04T09:29:30.095Z,4.60
2019-02-04T09:31:57.976Z,5.37
2019-02-04T09:34:25.958Z,3.80
2019-02-04T09:36:53.926Z,4.57
2019-02-04T09:39:22.276Z,4.17
2019-02-04T09:41:50.211Z,4.47
2019-02-04T09:44:18.116Z,3.17
2019-02-04T09:46:45.963Z,4.00
2019-02-04T09:49:13.927Z,3.40
2019-02-04T09:51:41.810Z,3.83
2019-02-04T09:54:09.773Z,3.33
2019-02-04T09:56:38.141Z,3.03
2019-02-04T09:59:06.254Z,3.80
2019-02-04T10:01:34.344Z,3.47
2019-02-04T10:04:02.563Z,3.70
2019-02-04T10:06:30.462Z,3.50
2019-02-04T10:08:58.513Z,3.47
2019-02-04T10:11:26.888Z,3.20
2019-02-04T10:13:54.957Z,2.77
2019-02-04T10:16:22.868Z,3.07
2019-02-04T10:18:50.894Z,3.67
2019-02-04T10:21:18.851Z,3.20
2019-02-04T10:23:46.731Z,2.80
2019-02-04T10:26:14.808Z,3.00
2019-02-04T10:28:42.793Z,3.40
2019-02-04T10:31:10.841Z,3.10
2019-02-04T10:33:38.924Z,2.80
2019-02-04T10:36:07.014Z,3.07
2019-02-04T10:38:35.080Z,3.07
2019-02-04T10:41:03.111Z,2.90
2019-02-04T10:43:31.533Z,3.07
2019-02-04T10:45:59.653Z,3.23
2019-02-04T10:48:27.612Z,3.70
2019-02-04T10:50:55.734Z,3.57
2019-02-04T10:53:23.752Z,3.13
2019-02-04T10:55:51.728Z,3.80
2019-02-04T10:58:19.675Z,3.40
2019-02-04T11:00:48.091Z,3.33
2019-02-04T11:03:16.105Z,3.30
2019-02-04T11:05:44.047Z,3.57
2019-02-04T11:08:12.199Z,3.03
2019-02-04T11:10:40.177Z,3.23
2019-02-04T11:13:12.595Z,3.80
2019-02-04T11:15:41.287Z,3.80
2019-02-04T11:18:09.659Z,3.40
2019-02-04T11:20:37.648Z,3.60
2019-02-04T11:23:10.929Z,3.50
2019-02-04T11:25:39.085Z,3.80
2019-02-04T11:28:07.691Z,3.23
2019-02-04T11:30:37.500Z,3.90
2019-02-04T11:33:05.714Z,4.10
2019-02-04T11:35:33.750Z,3.80
2019-02-04T11:38:01.752Z,3.90
2019-02-04T11:40:30.858Z,3.73
2019-02-04T11:42:58.809Z,3.40
2019-02-04T11:45:27.596Z,3.57
2019-02-04T11:47:55.571Z,3.37
2019-02-04T11:50:23.608Z,3.67
2019-02-04T11:52:51.708Z,3.67
2019-02-04T11:55:19.776Z,3.80
2019-02-04T11:57:47.746Z,4.03
2019-02-04T12:00:17.018Z,3.87
2019-02-04T12:02:45.184Z,3.87
2019-02-04T12:05:13.900Z,3.60
2019-02-04T12:07:41.970Z,4.00
2019-02-04T12:10:11.583Z,3.90
2019-02-04T12:12:39.643Z,4.63
2019-02-04T12:15:09.186Z,4.27
2019-02-04T12:17:37.252Z,4.10
2019-02-04T12:20:06.224Z,3.73
2019-02-04T12:22:34.390Z,3.63
2019-02-04T12:25:02.646Z,4.27
2019-02-04T12:27:32.103Z,3.60
2019-02-04T12:30:00.461Z,4.43
2019-02-04T12:32:29.158Z,3.43
2019-02-04T12:34:57.009Z,3.77
2019-02-04T12:37:24.851Z,3.93
2019-02-04T12:39:52.802Z,3.33
2019-02-04T12:42:20.779Z,3.80
2019-02-04T12:44:48.752Z,3.23
2019-02-04T12:47:16.750Z,3.40
2019-02-04T12:49:44.823Z,3.30
2019-02-04T12:52:12.681Z,3.60
2019-02-04T12:54:40.547Z,3.93
2019-02-04T12:57:08.400Z,3.40
2019-02-04T12:59:36.267Z,3.67
2019-02-04T13:02:04.212Z,3.47
2019-02-04T13:04:32.194Z,3.43
2019-02-04T13:07:00.216Z,4.20
2019-02-04T13:09:28.336Z,3.40
2019-02-04T13:11:56.460Z,3.57
2019-02-04T13:14:24.511Z,3.47
2019-02-04T13:16:52.564Z,3.80
2019-02-04T13:19:20.589Z,3.83
2019-02-04T13:21:48.865Z,3.50
2019-02-04T13:24:48.568Z,3.70
2019-02-04T13:27:16.816Z,3.80
2019-02-04T13:29:44.844Z,4.03
2019-02-04T13:32:13.280Z,3.37
2019-02-04T13:34:41.368Z,4.13
2019-02-04T13:37:09.404Z,3.70
2019-02-04T13:39:37.451Z,3.83
2019-02-04T13:42:05.620Z,3.70
2019-02-04T13:44:33.639Z,4.40
2019-02-04T13:47:02.363Z,3.80
2019-02-04T13:49:31.875Z,4.40
2019-02-04T13:51:59.957Z,4.07
2019-02-04T13:54:27.998Z,4.27
2019-02-04T13:56:56.175Z,4.70
2019-02-04T13:59:24.555Z,4.50
2019-02-04T14:01:52.909Z,4.70
2019-02-04T14:04:21.101Z,4.83
2019-02-04T14:06:49.423Z,4.80
2019-02-04T14:09:19.200Z,4.87
2019-02-04T14:11:47.253Z,4.90
2019-02-04T14:14:15.448Z,5.07
2019-02-04T14:16:43.412Z,5.17
2019-02-04T14:19:11.465Z,4.20
2019-02-04T14:21:39.602Z,5.17
2019-02-04T14:24:07.649Z,4.30
2019-02-04T14:26:35.721Z,5.07
2019-02-04T14:29:03.783Z,4.27
2019-02-04T14:31:31.986Z,4.63
2019-02-04T14:34:00.249Z,4.30
2019-02-04T14:36:28.323Z,4.57
2019-02-04T14:38:56.782Z,4.20
2019-02-04T14:41:25.033Z,4.23
2019-02-04T14:43:57.400Z,4.37
2019-02-04T14:47:08.579Z,4.60
2019-02-04T14:50:10.028Z,3.67
2019-02-04T14:53:30.657Z,4.33
2019-02-04T14:56:20.000Z,3.50
2019-02-04T14:59:21.892Z,3.90
2019-02-04T15:02:33.364Z,4.23
2019-02-04T15:05:48.425Z,3.87
2019-02-04T15:09:06.345Z,3.87
2019-02-04T15:12:00.075Z,3.73
2019-02-04T15:15:25.375Z,4.03
2019-02-04T15:18:39.496Z,3.77
2019-02-04T15:21:47.821Z,3.43
2019-02-04T15:24:49.813Z,3.83
2019-02-04T15:27:49.905Z,3.83
2019-02-04T15:30:59.248Z,3.70
2019-02-04T15:33:53.266Z,3.60
2019-02-04T15:36:58.713Z,3.70
2019-02-04T15:40:07.912Z,3.90
2019-02-04T15:43:09.237Z,4.03
2019-02-04T15:45:49.501Z,3.73
2019-02-04T15:48:35.360Z,4.10
2019-02-04T15:51:31.677Z,4.10
2019-02-04T15:54:02.301Z,4.60
2019-02-04T15:56:30.610Z,3.90
2019-02-04T15:58:58.722Z,3.77
2019-02-04T16:01:26.671Z,3.93
2019-02-04T16:03:54.765Z,4.30
2019-02-04T16:06:22.829Z,3.50
2019-02-04T16:08:51.001Z,4.33
2019-02-04T16:11:19.241Z,3.80
2019-02-04T16:13:47.305Z,4.33
2019-02-04T16:16:15.508Z,4.33
2019-02-04T16:18:43.485Z,4.23
2019-02-04T16:21:11.607Z,3.73
2019-02-04T16:23:39.637Z,3.83
2019-02-04T16:26:07.833Z,5.10
2019-02-04T16:28:35.784Z,4.47
2019-02-04T16:31:04.047Z,4.47
2019-02-04T16:33:31.971Z,4.30
2019-02-04T16:36:00.012Z,4.47
2019-02-04T16:38:28.051Z,4.50
2019-02-04T16:40:56.372Z,4.37
2019-02-04T16:43:24.472Z,5.00
2019-02-04T16:45:52.508Z,4.90
2019-02-04T16:48:20.580Z,4.83
2019-02-04T16:51:03.439Z,4.73
2019-02-04T16:53:18.596Z,4.10
2019-02-04T16:55:46.712Z,4.43
2019-02-04T16:58:14.765Z,4.10
2019-02-04T17:00:42.780Z,4.83
2019-02-04T17:03:10.836Z,4.87
2019-02-04T17:05:39.073Z,4.80
2019-02-04T17:08:07.792Z,4.60
2019-02-04T17:10:35.854Z,5.73
2019-02-04T17:13:04.402Z,5.03
2019-02-04T17:15:32.511Z,5.47
2019-02-04T17:18:00.769Z,5.30
2019-02-04T17:20:30.929Z,5.20
2019-02-04T17:22:59.092Z,5.20
2019-02-04T17:25:27.201Z,6.03
2019-02-04T17:27:55.309Z,5.00
2019-02-04T17:30:23.824Z,5.13
2019-02-04T17:32:51.880Z,5.27
2019-02-04T17:35:20.040Z,5.33
2019-02-04T17:37:48.239Z,5.77
2019-02-04T17:40:18.340Z,5.63
2019-02-04T17:42:46.295Z,5.47
2019-02-04T17:45:15.069Z,5.73
2019-02-04T17:47:43.540Z,5.43
2019-02-04T17:50:12.867Z,5.77
2019-02-04T17:52:40.914Z,4.67
2019-02-04T17:55:12.388Z,4.73
2019-02-04T17:57:40.448Z,4.97
2019-02-04T18:00:22.947Z,5.20
2019-02-04T18:02:50.969Z,5.23
2019-02-04T18:05:18.929Z,4.83
2019-02-04T18:07:46.947Z,4.60
2019-02-04T18:10:15.119Z,4.30
2019-02-04T18:12:43.148Z,4.37
2019-02-04T18:15:13.921Z,4.20
2019-02-04T18:17:42.132Z,4.57
2019-02-04T18:20:11.788Z,4.63
2019-02-04T18:22:39.884Z,4.20
2019-02-04T18:25:08.976Z,4.10
2019-02-04T18:27:37.101Z,4.07
2019-02-04T18:30:07.054Z,4.23
2019-02-04T18:32:35.071Z,3.90
2019-02-04T18:35:04.368Z,4.10
2019-02-04T18:37:32.443Z,3.90
2019-02-04T18:40:00.578Z,3.87
2019-02-04T18:42:28.775Z,3.47
2019-02-04T18:44:56.866Z,4.00
2019-02-04T18:47:24.940Z,4.07
2019-02-04T18:49:52.990Z,3.87
2019-02-04T18:52:21.095Z,3.60
2019-02-04T18:54:49.258Z,3.27
2019-02-04T18:57:17.856Z,3.47
2019-02-04T18:59:45.891Z,3.10
2019-02-04T19:02:13.932Z,3.57
2019-02-04T19:04:41.982Z,3.77
2019-02-04T19:07:10.168Z,3.67
2019-02-04T19:09:38.253Z,3.67
2019-02-04T19:12:06.685Z,3.63
2019-02-04T19:14:35.211Z,3.87
2019-02-04T19:17:03.161Z,3.80
2019-02-04T19:19:31.175Z,3.90
2019-02-04T19:21:59.418Z,3.90
2019-02-04T19:24:27.458Z,4.03
2019-02-04T19:26:55.648Z,4.30
2019-02-04T19:29:23.746Z,3.37
2019-02-04T19:31:51.667Z,4.27
2019-02-04T19:34:19.739Z,3.87
2019-02-04T19:36:47.781Z,3.20
2019-02-04T19:39:15.834Z,4.10
2019-02-04T19:41:43.824Z,3.83
2019-02-04T19:44:11.994Z,3.93
2019-02-04T19:46:40.343Z,3.80
2019-02-04T19:49:08.384Z,3.67
2019-02-04T19:51:36.440Z,4.60
2019-02-04T19:54:04.843Z,3.60
2019-02-04T19:56:32.859Z,3.83
2019-02-04T19:59:01.019Z,3.57
2019-02-04T20:01:29.052Z,4.07
2019-02-04T20:03:57.377Z,4.10
2019-02-04T20:06:25.456Z,4.10
2019-02-04T20:08:53.605Z,4.40
2019-02-04T20:11:21.617Z,3.77
2019-02-04T20:13:49.444Z,4.17
2019-02-04T20:16:17.880Z,3.77
2019-02-04T20:18:45.814Z,3.93
2019-02-04T20:21:13.955Z,3.70
2019-02-04T20:23:42.024Z,3.63
2019-02-04T20:26:10.143Z,3.23
2019-02-04T20:28:38.404Z,3.93
2019-02-04T20:31:06.538Z,3.23
2019-02-04T20:33:34.585Z,3.33
2019-02-04T20:36:02.641Z,3.30
2019-02-04T20:38:30.652Z,3.17
2019-02-04T20:40:58.813Z,3.10
2019-02-04T20:43:26.831Z,2.90
2019-02-04T20:45:54.877Z,3.17
2019-02-04T20:48:23.000Z,3.10
2019-02-04T20:50:51.152Z,2.33
2019-02-04T20:53:19.405Z,2.60
2019-02-04T20:55:47.524Z,2.50
2019-02-04T20:58:15.585Z,2.43
2019-02-04T21:00:43.947Z,2.73
2019-02-04T21:03:12.052Z,2.47
2019-02-04T21:05:40.071Z,2.80
2019-02-04T21:08:08.200Z,2.40
2019-02-04T21:10:36.565Z,2.33
2019-02-04T21:13:04.841Z,2.40
2019-02-04T21:15:32.977Z,2.27
2019-02-04T21:18:01.002Z,1.90
2019-02-04T21:20:29.533Z,1.83
2019-02-04T21:22:57.872Z,1.90
2019-02-04T21:25:25.887Z,2.27
2019-02-04T21:27:53.951Z,1.70
2019-02-04T21:30:27.119Z,1.80
2019-02-04T21:32:55.362Z,1.40
2019-02-04T21:35:23.387Z,1.70
2019-02-04T21:37:51.523Z,1.73
2019-02-04T21:40:20.168Z,1.60
2019-02-04T21:42:49.211Z,1.60
2019-02-04T21:45:18.648Z,1.27
2019-02-04T21:47:46.649Z,1.53
2019-02-04T21:50:17.019Z,1.30
2019-02-04T21:52:45.131Z,1.30
2019-02-04T21:55:13.771Z,1.37
2019-02-04T21:57:42.046Z,1.40
2019-02-04T22:00:13.752Z,1.10
2019-02-04T22:02:41.676Z,1.10
2019-02-04T22:05:11.172Z,1.10
2019-02-04T22:07:39.429Z,1.00
2019-02-04T22:10:11.951Z,1.07
2019-02-04T22:12:39.927Z,0.77
2019-02-04T22:15:08.424Z,1.07
2019-02-04T22:17:36.479Z,0.80
2019-02-04T22:20:05.464Z,0.93
2019-02-04T22:22:34.234Z,1.10
2019-02-04T22:25:02.296Z,0.90
2019-02-04T22:27:30.839Z,0.80
2019-02-04T22:29:59.112Z,0.97
2019-02-04T22:32:27.737Z,0.73
2019-02-04T22:34:56.083Z,1.07
2019-02-04T22:37:24.213Z,0.87
2019-02-04T22:39:52.216Z,0.60
2019-02-04T22:42:20.359Z,0.70
2019-02-04T22:44:48.404Z,0.80
2019-02-04T22:47:16.763Z,0.93
2019-02-04T22:49:44.795Z,0.63
2019-02-04T22:52:12.950Z,0.80
2019-02-04T22:54:40.983Z,0.60
2019-02-04T22:57:09.011Z,0.80
2019-02-04T22:59:37.200Z,0.63
2019-02-04T23:02:05.747Z,0.60
2019-02-04T23:04:33.872Z,0.90
2019-02-04T23:07:02.405Z,0.70
2019-02-04T23:09:30.348Z,0.60
2019-02-04T23:11:58.362Z,0.80
2019-02-04T23:14:26.564Z,0.63
2019-02-04T23:16:54.643Z,0.73
2019-02-04T23:19:22.860Z,0.60
2019-02-04T23:21:51.040Z,0.70
2019-02-04T23:24:19.061Z,0.70
2019-02-04T23:26:47.204Z,0.70
2019-02-04T23:29:15.126Z,0.77
2019-02-04T23:31:43.274Z,0.60
2019-02-04T23:34:11.897Z,0.60
2019-02-04T23:36:40.069Z,0.67
2019-02-04T23:39:09.304Z,0.60
2019-02-04T23:41:37.238Z,0.50
2019-02-04T23:44:05.500Z,0.50
2019-02-04T23:46:33.527Z,0.63
2019-02-04T23:49:01.538Z,0.60
2019-02-04T23:51:29.711Z,0.60
2019-02-04T23:53:57.756Z,0.60
2019-02-04T23:56:25.683Z,0.60
2019-02-04T23:58:53.615Z,0.70
